Time;durP1;ratioP1;P1;durP2;ratioP2;P2;SDS_P1;SDS_P2;PMS_P1;PMS_P2;Temp;Humidity;BMP_temperature;BMP_pressure;BME280_temperature;BME280_humidity;BME280_pressure;Samples;Min_cycle;Max_cycle;Signal;HPM_P1;HPM_P2
2023/09/18 00:01:49;;;;;;;9.73;5.32;;;20.60;99.90;;;;;;5021857;28;20029;-67
2023/09/18 00:04:15;;;;;;;8.88;4.78;;;20.50;99.90;;;;;;5039163;28;20028;-67
2023/09/18 00:06:40;;;;;;;10.77;4.75;;;20.50;99.90;;;;;;5039210;28;20025;-66
2023/09/18 00:09:11;;;;;;;11.20;4.95;;;20.50;99.90;;;;;;5022042;28;20030;-67
2023/09/18 00:11:37;;;;;;;14.70;5.40;;;20.40;99.90;;;;;;5039286;28;20105;-67
2023/09/18 00:14:03;;;;;;;7.97;4.93;;;20.40;99.90;;;;;;5021559;28;20032;-66
2023/09/18 00:16:29;;;;;;;12.07;5.43;;;20.30;99.90;;;;;;5021632;28;20025;-67
2023/09/18 00:18:54;;;;;;;13.95;5.57;;;20.30;99.90;;;;;;5021668;28;20103;-67
2023/09/18 00:21:20;;;;;;;9.23;5.03;;;20.40;99.90;;;;;;5039135;28;20034;-66
2023/09/18 00:23:46;;;;;;;13.15;5.35;;;20.40;99.90;;;;;;5021436;28;20063;-67
2023/09/18 00:26:12;;;;;;;8.25;5.45;;;20.40;99.90;;;;;;5038696;28;20072;-67
2023/09/18 00:28:37;;;;;;;11.55;5.80;;;20.30;99.90;;;;;;5021856;28;20033;-67
2023/09/18 00:31:03;;;;;;;15.13;5.45;;;20.30;99.90;;;;;;5021250;28;20048;-67
2023/09/18 00:33:28;;;;;;;10.50;5.53;;;20.20;99.90;;;;;;5021245;28;20053;-66
2023/09/18 00:35:54;;;;;;;11.00;5.15;;;20.30;99.90;;;;;;5021231;28;20025;-67
2023/09/18 00:38:19;;;;;;;10.05;5.25;;;20.20;99.90;;;;;;5021579;28;20021;-67
2023/09/18 00:40:45;;;;;;;8.20;5.30;;;20.20;99.90;;;;;;5038327;28;20128;-67
2023/09/18 00:43:11;;;;;;;8.00;5.05;;;20.10;99.90;;;;;;5022052;28;20025;-67
2023/09/18 00:45:41;;;;;;;7.97;4.88;;;20.10;99.90;;;;;;5038847;28;20077;-67
2023/09/18 00:48:07;;;;;;;10.07;4.75;;;20.00;99.90;;;;;;5038404;28;20029;-67
2023/09/18 00:50:33;;;;;;;10.88;5.70;;;19.90;99.90;;;;;;5037935;28;20021;-67
2023/09/18 00:53:01;;;;;;;8.90;5.00;;;19.80;99.90;;;;;;5038605;28;20029;-66
2023/09/18 00:55:29;;;;;;;11.45;5.28;;;19.80;99.90;;;;;;5021262;28;20112;-66
2023/09/18 00:57:58;;;;;;;7.72;5.00;;;19.90;99.90;;;;;;5038124;28;20101;-67
2023/09/18 01:00:23;;;;;;;10.57;4.72;;;19.80;99.90;;;;;;5020680;28;20029;-67
2023/09/18 01:02:49;;;;;;;11.30;4.82;;;19.80;99.90;;;;;;5038333;28;20021;-67
2023/09/18 01:05:17;;;;;;;14.20;5.75;;;19.80;99.90;;;;;;5020615;28;20120;-67
2023/09/18 01:07:42;;;;;;;8.82;5.10;;;19.80;99.90;;;;;;5038038;28;20017;-67
2023/09/18 01:10:09;;;;;;;8.75;4.63;;;19.80;99.90;;;;;;5020557;28;20025;-67
2023/09/18 01:12:43;;;;;;;6.82;3.95;;;19.80;99.90;;;;;;5038048;28;20025;-67
2023/09/18 01:15:09;;;;;;;6.82;4.30;;;19.80;99.90;;;;;;5020576;28;20060;-67
2023/09/18 01:17:38;;;;;;;11.35;4.63;;;19.70;99.90;;;;;;5037744;28;20017;-67
2023/09/18 01:20:05;;;;;;;13.07;4.90;;;19.70;99.90;;;;;;5020708;28;20021;-67
2023/09/18 01:22:31;;;;;;;6.70;4.30;;;19.70;99.90;;;;;;5037665;28;20075;-67
2023/09/18 01:24:57;;;;;;;12.95;5.15;;;19.70;99.90;;;;;;5037695;28;20033;-67
2023/09/18 01:27:23;;;;;;;12.88;5.07;;;19.80;99.90;;;;;;5037833;28;20026;-67
2023/09/18 01:29:49;;;;;;;7.70;4.40;;;19.70;99.90;;;;;;5037732;28;20028;-66
2023/09/18 01:32:15;;;;;;;10.23;5.32;;;19.70;99.90;;;;;;5037626;28;20025;-66
2023/09/18 01:34:53;;;;;;;8.18;5.30;;;19.70;99.90;;;;;;5037623;28;20100;-66
2023/09/18 01:37:22;;;;;;;12.55;4.97;;;19.70;99.90;;;;;;5020191;28;20021;-66
2023/09/18 01:39:49;;;;;;;9.73;5.20;;;19.70;99.90;;;;;;5037288;28;20048;-66
2023/09/18 01:42:15;;;;;;;13.20;5.43;;;19.70;99.90;;;;;;5020311;28;20022;-65
2023/09/18 01:44:41;;;;;;;9.07;4.93;;;19.70;99.90;;;;;;5020014;28;20037;-66
2023/09/18 01:47:12;;;;;;;8.48;4.82;;;19.70;99.90;;;;;;5037491;28;20037;-66
2023/09/18 01:49:39;;;;;;;7.97;4.88;;;19.60;99.90;;;;;;5037260;28;20048;-66
2023/09/18 01:52:06;;;;;;;7.55;4.95;;;19.70;99.90;;;;;;5019953;28;20028;-65
2023/09/18 01:54:33;;;;;;;7.88;4.70;;;19.60;99.90;;;;;;5019732;28;20057;-66
2023/09/18 01:56:58;;;;;;;14.48;5.28;;;19.60;99.90;;;;;;5019764;28;20022;-66
2023/09/18 01:59:25;;;;;;;13.48;4.78;;;19.60;99.90;;;;;;5037092;28;20082;-65
2023/09/18 02:01:51;;;;;;;9.88;4.70;;;19.70;99.90;;;;;;5036703;28;20033;-66
2023/09/18 02:04:17;;;;;;;12.32;5.40;;;19.70;99.90;;;;;;5037021;28;20047;-66
2023/09/18 02:06:44;;;;;;;10.10;5.05;;;19.80;99.90;;;;;;5037068;28;20034;-66
2023/09/18 02:09:09;;;;;;;8.95;5.15;;;19.80;99.90;;;;;;5037095;28;20030;-66
2023/09/18 02:11:38;;;;;;;8.95;4.65;;;19.90;99.90;;;;;;5037005;28;20037;-66
2023/09/18 02:14:05;;;;;;;12.10;4.70;;;19.90;99.90;;;;;;5036808;28;20021;-66
2023/09/18 02:16:34;;;;;;;8.23;5.05;;;20.00;99.90;;;;;;5036912;28;20022;-65
2023/09/18 02:19:00;;;;;;;7.90;4.47;;;19.90;99.90;;;;;;5036918;28;20018;-66
2023/09/18 02:21:26;;;;;;;8.95;4.82;;;19.80;99.90;;;;;;5037187;28;20021;-65
2023/09/18 02:23:52;;;;;;;8.60;4.90;;;19.90;99.90;;;;;;5037180;28;20029;-66
2023/09/18 02:26:22;;;;;;;12.23;5.18;;;19.80;99.90;;;;;;5036882;28;20026;-66
2023/09/18 02:28:48;;;;;;;12.50;5.28;;;19.80;99.90;;;;;;5036714;28;20091;-66
2023/09/18 02:31:13;;;;;;;10.05;5.45;;;19.80;99.90;;;;;;5020390;28;20025;-66
2023/09/18 02:33:40;;;;;;;8.85;4.35;;;19.80;99.90;;;;;;5020210;28;20028;-66
2023/09/18 02:36:06;;;;;;;9.80;5.13;;;19.90;99.90;;;;;;5019497;28;20022;-66
2023/09/18 02:38:35;;;;;;;11.02;5.65;;;20.00;99.90;;;;;;5019364;28;20037;-66
2023/09/18 02:41:01;;;;;;;6.38;4.65;;;20.00;99.90;;;;;;5036654;28;20026;-64
2023/09/18 02:43:26;;;;;;;8.05;5.18;;;20.00;99.90;;;;;;5036698;28;20039;-64
2023/09/18 02:45:52;;;;;;;7.75;4.70;;;20.00;99.90;;;;;;5036612;28;20029;-64
2023/09/18 02:48:18;;;;;;;7.43;4.75;;;19.90;99.90;;;;;;5019336;28;20085;-64
2023/09/18 02:50:45;;;;;;;8.32;4.68;;;20.10;99.90;;;;;;5019148;28;20079;-64
2023/09/18 02:53:21;;;;;;;9.82;5.07;;;20.40;99.90;;;;;;5019701;28;20025;-63
2023/09/18 02:55:58;;;;;;;12.57;5.63;;;20.60;99.90;;;;;;5036913;28;20053;-64
2023/09/18 02:58:25;;;;;;;6.30;4.47;;;20.60;99.90;;;;;;5036645;28;20107;-64
2023/09/18 03:00:52;;;;;;;14.38;5.05;;;20.50;99.90;;;;;;5036697;28;20021;-66
2023/09/18 03:03:17;;;;;;;13.55;5.55;;;20.50;99.90;;;;;;5036452;28;20029;-66
2023/09/18 03:05:44;;;;;;;10.45;5.15;;;20.50;99.90;;;;;;5019214;28;20021;-67
2023/09/18 03:08:11;;;;;;;12.05;5.47;;;20.30;99.90;;;;;;5036770;28;20018;-67
2023/09/18 03:10:39;;;;;;;15.00;6.32;;;20.00;99.90;;;;;;5036703;28;20021;-67
2023/09/18 03:13:05;;;;;;;15.45;5.93;;;19.80;99.90;;;;;;5037692;28;20021;-67
2023/09/18 03:15:31;;;;;;;10.05;5.90;;;19.60;99.90;;;;;;5022658;28;20029;-66
2023/09/18 03:17:58;;;;;;;10.15;5.78;;;19.50;99.90;;;;;;5022718;28;20017;-67
2023/09/18 03:20:28;;;;;;;13.55;6.57;;;19.50;99.90;;;;;;5040177;28;20104;-67
2023/09/18 03:22:56;;;;;;;15.00;6.70;;;19.50;99.90;;;;;;5022688;28;20030;-67
2023/09/18 03:25:22;;;;;;;8.55;5.45;;;19.50;99.90;;;;;;5022468;28;20030;-66
2023/09/18 03:27:48;;;;;;;12.65;5.70;;;19.40;99.90;;;;;;5022479;28;20074;-67
2023/09/18 03:30:15;;;;;;;9.27;5.90;;;19.40;99.90;;;;;;5039772;28;20029;-67
2023/09/18 03:32:42;;;;;;;19.25;6.38;;;19.40;99.90;;;;;;5022306;28;20034;-67
2023/09/18 03:35:15;;;;;;;8.32;5.85;;;19.20;99.90;;;;;;5039794;28;20022;-67
2023/09/18 03:37:41;;;;;;;7.03;5.43;;;19.30;99.90;;;;;;5022809;28;20104;-67
2023/09/18 03:40:08;;;;;;;9.35;5.53;;;19.30;99.90;;;;;;5039847;28;20088;-67
2023/09/18 03:42:34;;;;;;;11.88;5.80;;;19.20;99.90;;;;;;5039795;28;20022;-65
2023/09/18 03:44:59;;;;;;;16.52;6.00;;;19.20;99.90;;;;;;5039571;28;20026;-65
2023/09/18 03:47:25;;;;;;;7.43;5.80;;;19.30;99.90;;;;;;5022166;28;20026;-65
2023/09/18 03:49:51;;;;;;;13.98;5.72;;;19.30;99.90;;;;;;5039612;28;20030;-67
2023/09/18 03:52:16;;;;;;;10.40;5.55;;;19.40;99.90;;;;;;5022080;28;20079;-67
2023/09/18 03:54:42;;;;;;;14.52;5.90;;;19.40;99.90;;;;;;5039615;28;20067;-67
2023/09/18 03:57:07;;;;;;;10.38;5.00;;;19.50;99.90;;;;;;5039944;28;20112;-66
2023/09/18 03:59:33;;;;;;;7.75;4.85;;;19.40;99.90;;;;;;5039378;28;20017;-67
2023/09/18 04:01:58;;;;;;;10.07;4.70;;;19.50;99.90;;;;;;5021864;28;20026;-67
2023/09/18 04:04:24;;;;;;;10.48;5.30;;;19.60;99.90;;;;;;5022063;28;20028;-67
2023/09/18 04:06:50;;;;;;;9.02;4.50;;;19.60;99.90;;;;;;5021660;28;20033;-67
2023/09/18 04:09:15;;;;;;;9.95;4.72;;;19.60;99.90;;;;;;5021773;28;20021;-67
2023/09/18 04:11:41;;;;;;;6.97;4.28;;;19.60;99.90;;;;;;5021575;28;20033;-67
2023/09/18 04:14:06;;;;;;;6.18;4.43;;;19.70;99.90;;;;;;5021600;28;20040;-67
2023/09/18 04:16:35;;;;;;;8.05;3.83;;;19.70;99.90;;;;;;5039341;28;20022;-67
2023/09/18 04:19:01;;;;;;;7.18;4.03;;;19.80;99.90;;;;;;5039317;28;20026;-67
2023/09/18 04:21:27;;;;;;;12.38;4.35;;;19.80;99.90;;;;;;5038963;28;20024;-67
2023/09/18 04:23:57;;;;;;;9.63;4.22;;;19.80;99.90;;;;;;5038780;28;20100;-67
2023/09/18 04:26:29;;;;;;;8.43;3.80;;;19.90;99.90;;;;;;5038269;28;20025;-67
2023/09/18 04:28:55;;;;;;;9.68;4.18;;;20.00;99.90;;;;;;5021261;28;20064;-67
2023/09/18 04:31:21;;;;;;;10.45;4.47;;;19.90;99.90;;;;;;5021515;28;20059;-67
2023/09/18 04:33:46;;;;;;;10.80;4.22;;;19.90;99.90;;;;;;5038579;28;20022;-67
2023/09/18 04:36:12;;;;;;;9.32;3.53;;;19.90;99.90;;;;;;5021587;28;20032;-67
2023/09/18 04:38:37;;;;;;;9.43;3.97;;;20.00;99.90;;;;;;5021239;28;20071;-67
2023/09/18 04:41:03;;;;;;;8.02;3.95;;;20.10;99.90;;;;;;5021470;28;20088;-69
2023/09/18 04:43:31;;;;;;;6.50;3.92;;;20.00;99.90;;;;;;5038752;28;20022;-69
2023/09/18 04:45:57;;;;;;;8.00;3.88;;;19.90;99.90;;;;;;5038599;28;20076;-69
2023/09/18 04:48:22;;;;;;;10.48;4.43;;;19.90;99.90;;;;;;5038286;28;20026;-69
2023/09/18 04:50:48;;;;;;;6.70;3.83;;;19.90;99.90;;;;;;5020956;28;20022;-69
2023/09/18 04:53:14;;;;;;;7.70;3.50;;;20.00;99.90;;;;;;5038528;28;20021;-70
2023/09/18 04:55:40;;;;;;;7.72;4.68;;;20.10;99.90;;;;;;5038230;28;20021;-67
2023/09/18 04:58:06;;;;;;;5.53;3.38;;;20.20;99.90;;;;;;5038163;28;20021;-67
2023/09/18 05:00:33;;;;;;;8.32;3.45;;;20.20;99.90;;;;;;5038242;28;20025;-67
2023/09/18 05:03:01;;;;;;;7.78;3.78;;;20.20;99.90;;;;;;5020779;28;20116;-67
2023/09/18 05:05:27;;;;;;;12.65;4.28;;;20.20;99.90;;;;;;5037905;28;20045;-67
2023/09/18 05:07:52;;;;;;;6.25;3.72;;;20.10;99.90;;;;;;5038293;28;20033;-67
2023/09/18 05:10:18;;;;;;;6.20;3.72;;;20.20;99.90;;;;;;5020702;28;20025;-67
2023/09/18 05:12:45;;;;;;;8.77;4.03;;;20.30;99.90;;;;;;5038152;28;20025;-67
2023/09/18 05:15:12;;;;;;;6.47;3.53;;;20.30;99.90;;;;;;5038076;28;20029;-67
2023/09/18 05:17:47;;;;;;;7.07;3.70;;;20.40;99.90;;;;;;5038047;28;20100;-67
2023/09/18 05:20:15;;;;;;;6.93;3.47;;;20.50;99.90;;;;;;5020844;28;20080;-67
2023/09/18 05:22:42;;;;;;;6.13;3.20;;;20.50;99.90;;;;;;5037828;28;20022;-67
2023/09/18 05:25:11;;;;;;;10.88;3.40;;;20.50;99.90;;;;;;5020745;28;20116;-67
2023/09/18 05:27:44;;;;;;;5.47;3.22;;;20.40;99.90;;;;;;5037582;28;20029;-67
2023/09/18 05:30:14;;;;;;;9.10;3.35;;;20.30;99.90;;;;;;5020325;28;20025;-67
2023/09/18 05:32:41;;;;;;;8.88;3.20;;;20.30;99.90;;;;;;5037885;28;20053;-67
2023/09/18 05:35:09;;;;;;;6.00;3.67;;;20.20;99.90;;;;;;5037379;28;20026;-67
2023/09/18 05:37:37;;;;;;;9.05;3.72;;;20.10;99.90;;;;;;5020036;28;20021;-67
2023/09/18 05:40:09;;;;;;;6.25;3.17;;;20.10;99.90;;;;;;5020017;28;20030;-69
2023/09/18 05:42:36;;;;;;;7.75;3.05;;;20.20;99.90;;;;;;5038038;28;20085;-64
2023/09/18 05:45:01;;;;;;;6.50;3.25;;;20.40;99.90;;;;;;5037491;28;20025;-64
2023/09/18 05:47:29;;;;;;;8.35;2.80;;;20.50;99.90;;;;;;5037522;28;20026;-64
2023/09/18 05:49:55;;;;;;;6.75;3.40;;;20.50;99.90;;;;;;5037262;28;20025;-64
2023/09/18 05:52:22;;;;;;;7.90;3.47;;;20.60;99.90;;;;;;5019874;28;20017;-64
2023/09/18 05:54:48;;;;;;;17.75;3.95;;;20.50;99.90;;;;;;5019771;28;20029;-64
2023/09/18 05:57:13;;;;;;;16.48;4.30;;;20.50;99.90;;;;;;5019743;28;20025;-64
2023/09/18 05:59:40;;;;;;;7.93;3.75;;;20.60;99.90;;;;;;5020097;28;20024;-64
2023/09/18 06:02:05;;;;;;;7.45;3.42;;;20.60;99.90;;;;;;5020597;28;20076;-64
2023/09/18 06:04:31;;;;;;;9.55;3.60;;;20.60;99.90;;;;;;5036990;28;20037;-64
2023/09/18 06:06:57;;;;;;;7.72;3.63;;;20.60;99.90;;;;;;5019781;28;20031;-64
2023/09/18 06:09:22;;;;;;;14.40;4.25;;;20.60;99.90;;;;;;5019620;28;20025;-64
2023/09/18 06:11:48;;;;;;;8.50;3.25;;;20.70;99.90;;;;;;5037238;28;20049;-64
2023/09/18 06:14:13;;;;;;;6.90;3.80;;;20.60;99.90;;;;;;5019444;28;20028;-64
2023/09/18 06:16:39;;;;;;;10.48;4.00;;;20.60;99.90;;;;;;5019874;28;20033;-64
2023/09/18 06:19:04;;;;;;;8.45;3.63;;;20.60;99.90;;;;;;5019532;28;20058;-64
2023/09/18 06:21:30;;;;;;;7.25;3.30;;;20.40;99.90;;;;;;5019586;28;20017;-63
2023/09/18 06:23:56;;;;;;;15.00;4.18;;;20.20;99.90;;;;;;5036983;28;20017;-64
2023/09/18 06:26:22;;;;;;;10.15;4.07;;;20.10;99.90;;;;;;5037250;28;20125;-64
2023/09/18 06:28:47;;;;;;;11.73;3.40;;;20.20;99.90;;;;;;5019451;28;20053;-64
2023/09/18 06:31:13;;;;;;;11.15;4.30;;;20.30;99.90;;;;;;5019370;28;20108;-64
2023/09/18 06:33:38;;;;;;;9.20;3.53;;;20.30;99.90;;;;;;5019687;28;20064;-64
2023/09/18 06:36:04;;;;;;;5.35;3.22;;;20.40;99.90;;;;;;5037442;28;20029;-64
2023/09/18 06:38:30;;;;;;;8.57;3.92;;;20.50;99.90;;;;;;5036733;28;20029;-64
2023/09/18 06:40:55;;;;;;;8.57;3.33;;;20.70;99.90;;;;;;5019283;28;20029;-64
2023/09/18 06:43:22;;;;;;;11.07;3.88;;;20.80;99.90;;;;;;5020204;28;20018;-64
2023/09/18 06:45:48;;;;;;;8.52;3.45;;;20.80;99.90;;;;;;5036644;28;20018;-64
2023/09/18 06:48:15;;;;;;;12.38;4.07;;;20.70;99.90;;;;;;5038639;28;20021;-64
2023/09/18 06:50:41;;;;;;;11.93;3.90;;;20.80;99.90;;;;;;5040748;28;20017;-64
2023/09/18 06:53:06;;;;;;;12.65;3.63;;;20.80;99.90;;;;;;5023084;28;20029;-64
2023/09/18 06:55:32;;;;;;;8.63;4.00;;;20.80;99.90;;;;;;5022883;28;20045;-64
2023/09/18 06:57:57;;;;;;;9.98;3.70;;;20.80;99.90;;;;;;5040510;28;20013;-64
2023/09/18 07:00:23;;;;;;;6.03;3.15;;;20.90;99.90;;;;;;5023418;28;20126;-64
2023/09/18 07:02:49;;;;;;;10.95;3.58;;;20.80;99.90;;;;;;5023011;28;20021;-64
2023/09/18 07:05:14;;;;;;;9.77;3.97;;;20.60;99.90;;;;;;5040388;28;20021;-64
2023/09/18 07:07:40;;;;;;;9.30;3.60;;;20.70;99.90;;;;;;5022895;28;20067;-64
2023/09/18 07:10:06;;;;;;;7.10;3.25;;;20.90;99.90;;;;;;5040286;28;20025;-65
2023/09/18 07:12:32;;;;;;;8.05;3.67;;;21.00;99.90;;;;;;5022735;28;20059;-64
2023/09/18 07:15:03;;;;;;;8.32;3.65;;;21.00;99.90;;;;;;5040248;28;20085;-64
2023/09/18 07:17:28;;;;;;;10.38;4.10;;;21.10;99.90;;;;;;5040214;28;20104;-65
2023/09/18 07:19:54;;;;;;;10.80;4.13;;;21.00;99.90;;;;;;5022666;28;20124;-66
2023/09/18 07:22:19;;;;;;;14.40;4.55;;;21.10;99.90;;;;;;5022827;28;20028;-68
2023/09/18 07:24:45;;;;;;;8.32;3.60;;;21.00;99.90;;;;;;5039890;28;20029;-67
2023/09/18 07:27:11;;;;;;;9.98;3.92;;;21.00;99.90;;;;;;5023043;28;20068;-65
2023/09/18 07:29:37;;;;;;;9.63;3.85;;;21.00;99.90;;;;;;5022764;28;20025;-65
2023/09/18 07:32:03;;;;;;;12.52;4.15;;;20.80;99.90;;;;;;5022779;28;20025;-65
2023/09/18 07:34:28;;;;;;;9.88;4.13;;;20.80;99.90;;;;;;5040107;28;20103;-64
2023/09/18 07:36:55;;;;;;;10.50;3.92;;;20.90;99.90;;;;;;5022395;28;20068;-65
2023/09/18 07:39:21;;;;;;;14.02;4.78;;;20.90;99.90;;;;;;5039691;28;20095;-65
2023/09/18 07:41:47;;;;;;;9.43;3.95;;;20.70;99.90;;;;;;5039715;28;20025;-65
2023/09/18 07:44:18;;;;;;;11.07;3.58;;;20.80;99.90;;;;;;5039772;28;20018;-64
2023/09/18 07:46:44;;;;;;;11.65;3.72;;;20.90;99.90;;;;;;5022130;28;20029;-64
2023/09/18 07:49:09;;;;;;;7.72;3.80;;;21.00;99.90;;;;;;5039376;28;20040;-65
2023/09/18 07:51:35;;;;;;;9.77;3.78;;;21.20;99.90;;;;;;5039861;28;20032;-64
2023/09/18 07:54:00;;;;;;;8.48;3.00;;;21.30;99.90;;;;;;5022009;28;20032;-64
2023/09/18 07:56:27;;;;;;;13.07;2.97;;;21.40;99.90;;;;;;5021957;28;20021;-64
2023/09/18 07:58:52;;;;;;;6.78;2.70;;;21.40;99.90;;;;;;5038913;28;20018;-64
2023/09/18 08:01:21;;;;;;;4.85;2.13;;;21.50;99.90;;;;;;5021095;28;20067;-63
2023/09/18 08:03:46;;;;;;;5.90;2.15;;;21.50;99.90;;;;;;5022023;28;20080;-64
2023/09/18 08:06:12;;;;;;;8.27;3.00;;;21.50;99.90;;;;;;5021761;28;20018;-64
2023/09/18 08:08:39;;;;;;;11.68;2.40;;;21.60;99.90;;;;;;5022853;28;20151;-64
2023/09/18 08:11:10;;;;;;;7.03;2.40;;;21.60;99.90;;;;;;5021549;28;20024;-64
2023/09/18 08:13:36;;;;;;;8.10;3.08;;;21.50;99.90;;;;;;5039097;28;20057;-64
2023/09/18 08:16:05;;;;;;;8.48;2.35;;;21.50;99.90;;;;;;5021483;28;20083;-64
2023/09/18 08:18:31;;;;;;;9.05;2.38;;;21.60;99.90;;;;;;5039172;28;20017;-64
2023/09/18 08:20:58;;;;;;;7.25;2.33;;;21.80;99.90;;;;;;5038918;28;20075;-64
2023/09/18 08:23:24;;;;;;;11.13;2.72;;;21.90;99.90;;;;;;5039474;28;20100;-64
2023/09/18 08:25:51;;;;;;;10.10;2.35;;;21.90;99.90;;;;;;5038865;28;20025;-64
2023/09/18 08:28:17;;;;;;;5.78;2.28;;;21.90;99.90;;;;;;5038722;28;20021;-63
2023/09/18 08:30:46;;;;;;;5.47;1.60;;;21.90;99.90;;;;;;5021394;28;20052;-64
2023/09/18 08:33:13;;;;;;;9.48;2.30;;;21.90;99.90;;;;;;5022330;28;20025;-64
2023/09/18 08:35:39;;;;;;;7.65;1.88;;;21.90;99.90;;;;;;5021237;28;20051;-63
2023/09/18 08:38:05;;;;;;;10.07;2.05;;;22.10;99.90;;;;;;5038515;28;20096;-64
2023/09/18 08:40:31;;;;;;;9.20;2.03;;;22.10;99.90;;;;;;5038511;28;20033;-63
2023/09/18 08:43:00;;;;;;;6.57;1.70;;;22.20;99.90;;;;;;5021271;28;20018;-63
2023/09/18 08:45:35;;;;;;;7.60;1.58;;;22.30;99.90;;;;;;5020965;28;20021;-64
2023/09/18 08:48:01;;;;;;;5.65;1.42;;;22.30;99.90;;;;;;5038428;28;20025;-64
2023/09/18 08:50:28;;;;;;;10.45;1.40;;;22.30;99.90;;;;;;5038611;28;20025;-63
2023/09/18 08:52:55;;;;;;;5.60;1.95;;;22.40;99.90;;;;;;5038309;28;20029;-64
2023/09/18 08:55:21;;;;;;;6.30;1.55;;;22.40;99.90;;;;;;5038249;28;20057;-63
2023/09/18 08:57:47;;;;;;;3.55;1.60;;;22.30;99.90;;;;;;5020983;28;20101;-64
2023/09/18 09:00:16;;;;;;;5.57;1.88;;;22.30;99.90;;;;;;5038111;28;20025;-64
2023/09/18 09:02:45;;;;;;;7.28;1.80;;;22.30;99.90;;;;;;5038165;28;20189;-64
2023/09/18 09:05:11;;;;;;;5.40;1.58;;;22.30;99.90;;;;;;5038002;28;20026;-64
2023/09/18 09:07:37;;;;;;;6.72;1.90;;;22.40;99.90;;;;;;5020990;28;20022;-63
2023/09/18 09:10:03;;;;;;;5.78;1.67;;;22.30;99.90;;;;;;5020847;28;20036;-72
2023/09/18 09:12:51;;;;;;;5.03;1.67;;;22.30;99.90;;;;;;5038019;28;20029;-72
2023/09/18 09:15:17;;;;;;;4.65;1.50;;;22.20;99.90;;;;;;5020947;28;20048;-72
2023/09/18 09:17:44;;;;;;;7.50;1.55;;;22.20;99.90;;;;;;5038397;28;20025;-72
2023/09/18 09:20:14;;;;;;;7.05;1.92;;;22.10;99.90;;;;;;5020852;28;20028;-72
2023/09/18 09:22:41;;;;;;;3.93;2.13;;;22.20;99.90;;;;;;5020399;28;20082;-72
2023/09/18 09:25:33;;;;;;;5.40;1.85;;;22.10;99.90;;;;;;5020646;28;20029;-72
2023/09/18 09:28:00;;;;;;;5.43;1.65;;;22.20;99.90;;;;;;5020371;28;20115;-72
2023/09/18 09:30:28;;;;;;;11.00;1.92;;;22.20;99.90;;;;;;5037779;28;20036;-72
2023/09/18 09:32:56;;;;;;;6.22;2.10;;;22.20;99.90;;;;;;5020584;28;20054;-72
2023/09/18 09:35:28;;;;;;;9.38;3.45;;;22.20;99.90;;;;;;5020577;28;20029;-72
2023/09/18 09:38:01;;;;;;;6.97;2.15;;;22.30;99.90;;;;;;5020406;28;20026;-72
2023/09/18 09:40:28;;;;;;;7.47;2.53;;;22.20;99.90;;;;;;5019942;28;20029;-72
2023/09/18 09:43:00;;;;;;;6.93;2.47;;;22.30;99.90;;;;;;5037582;28;20024;-72
2023/09/18 09:45:31;;;;;;;9.13;2.13;;;22.30;99.90;;;;;;5037604;28;20101;-72
2023/09/18 09:47:57;;;;;;;4.28;1.60;;;22.20;99.90;;;;;;5037432;28;20036;-72
2023/09/18 09:50:25;;;;;;;8.68;1.65;;;22.10;99.90;;;;;;5037195;28;20041;-72
2023/09/18 09:52:52;;;;;;;4.95;1.80;;;22.20;99.90;;;;;;5037787;28;20021;-72
2023/09/18 09:55:33;;;;;;;6.45;1.52;;;22.30;99.90;;;;;;5020122;28;20036;-72
2023/09/18 09:58:01;;;;;;;3.08;1.55;;;22.40;99.90;;;;;;5037377;28;20025;-72
2023/09/18 10:00:42;;;;;;;4.97;1.42;;;22.40;99.90;;;;;;5037186;28;20052;-72
2023/09/18 10:03:12;;;;;;;7.32;2.22;;;22.40;99.90;;;;;;5019724;28;20117;-72
2023/09/18 10:05:39;;;;;;;7.22;1.73;;;22.20;99.90;;;;;;5020075;28;20025;-71
2023/09/18 10:08:21;;;;;;;5.90;1.20;;;22.30;99.90;;;;;;5037022;28;20109;-72
2023/09/18 10:10:49;;;;;;;8.52;2.13;;;22.20;99.90;;;;;;5019642;28;20087;-72
2023/09/18 10:13:24;;;;;;;6.78;2.15;;;22.30;99.90;;;;;;5037007;28;20112;-72
2023/09/18 10:15:50;;;;;;;3.08;1.60;;;22.30;99.90;;;;;;5036930;28;20025;-72
2023/09/18 10:18:26;;;;;;;4.13;1.80;;;22.20;99.90;;;;;;5037106;28;20022;-72
2023/09/18 10:21:03;;;;;;;5.28;1.48;;;22.10;99.90;;;;;;5019685;28;20022;-72
2023/09/18 10:24:00;;;;;;;3.28;1.40;;;22.10;99.90;;;;;;5041037;28;20025;-72
2023/09/18 10:26:30;;;;;;;4.38;1.50;;;22.10;99.90;;;;;;5043536;28;20052;-72
2023/09/18 10:28:59;;;;;;;6.07;1.58;;;22.00;99.90;;;;;;5043789;28;20029;-72
2023/09/18 10:31:28;;;;;;;7.40;1.60;;;22.10;99.90;;;;;;5043402;28;20025;-72
2023/09/18 10:33:57;;;;;;;2.63;1.48;;;22.20;99.90;;;;;;5026331;28;20025;-73
2023/09/18 10:36:24;;;;;;;3.85;1.67;;;22.20;99.90;;;;;;5026093;28;20079;-72
2023/09/18 10:38:51;;;;;;;4.63;2.00;;;22.30;99.90;;;;;;5025809;28;20025;-72
2023/09/18 10:41:21;;;;;;;5.07;1.92;;;22.30;99.90;;;;;;5043492;28;20033;-72
2023/09/18 10:43:49;;;;;;;10.52;1.95;;;22.30;99.90;;;;;;5043583;28;20049;-72
2023/09/18 10:46:15;;;;;;;2.88;1.73;;;22.20;99.90;;;;;;5043535;28;20021;-72
2023/09/18 10:48:46;;;;;;;8.43;1.90;;;22.10;99.90;;;;;;5025986;28;20076;-72
2023/09/18 10:51:13;;;;;;;6.63;2.40;;;22.10;99.90;;;;;;5025699;28;20026;-72
2023/09/18 10:53:40;;;;;;;4.68;1.65;;;22.20;99.90;;;;;;5043200;28;20021;-64
2023/09/18 10:56:05;;;;;;;5.88;1.80;;;22.30;99.90;;;;;;5025791;28;20044;-72
2023/09/18 10:58:35;;;;;;;5.30;1.80;;;22.30;99.90;;;;;;5043261;28;20024;-72
2023/09/18 11:01:02;;;;;;;3.55;2.00;;;22.30;99.90;;;;;;5043126;28;20024;-72
2023/09/18 11:03:28;;;;;;;4.35;2.00;;;22.40;99.90;;;;;;5025799;28;20049;-73
2023/09/18 11:06:09;;;;;;;5.18;1.38;;;22.40;99.90;;;;;;5025821;28;20033;-72
2023/09/18 11:08:49;;;;;;;3.95;1.83;;;22.40;99.90;;;;;;5043130;28;20100;-72
2023/09/18 11:11:20;;;;;;;2.67;1.83;;;22.40;99.90;;;;;;5043097;28;20033;-72
2023/09/18 11:13:49;;;;;;;4.22;1.60;;;22.40;99.90;;;;;;5043305;28;20029;-72
2023/09/18 11:16:27;;;;;;;3.55;1.80;;;22.40;99.90;;;;;;5025707;28;20025;-73
2023/09/18 11:18:59;;;;;;;3.80;1.58;;;22.40;99.90;;;;;;5025561;28;20022;-72
2023/09/18 11:21:26;;;;;;;5.35;1.75;;;22.40;99.90;;;;;;5026054;28;20049;-73
2023/09/18 11:24:06;;;;;;;4.05;1.80;;;22.40;99.90;;;;;;5025948;28;20021;-72
2023/09/18 11:26:34;;;;;;;3.78;1.75;;;22.50;99.90;;;;;;5025619;28;20026;-72
2023/09/18 11:29:05;;;;;;;4.22;1.60;;;22.50;99.90;;;;;;5025286;28;20017;-72
2023/09/18 11:31:53;;;;;;;3.60;1.95;;;22.60;99.90;;;;;;5043276;28;20018;-72
2023/09/18 11:34:35;;;;;;;4.22;1.73;;;22.60;99.90;;;;;;5041834;28;20025;-73
2023/09/18 11:37:04;;;;;;;5.13;1.45;;;22.50;99.90;;;;;;5039834;28;20101;-72
2023/09/18 11:39:48;;;;;;;5.60;1.67;;;22.40;99.90;;;;;;5022150;28;20033;-72
2023/09/18 11:42:16;;;;;;;9.73;1.98;;;22.40;99.90;;;;;;5039616;28;20029;-72
2023/09/18 11:44:45;;;;;;;6.70;1.98;;;22.50;99.90;;;;;;5039933;28;20079;-66
2023/09/18 11:47:22;;;;;;;4.13;1.90;;;22.40;99.90;;;;;;5039578;28;20029;-66
2023/09/18 11:49:54;;;;;;;7.93;1.90;;;22.40;99.90;;;;;;5039433;28;20032;-66
2023/09/18 11:52:24;;;;;;;4.80;1.80;;;22.50;99.90;;;;;;5039549;28;20026;-66
2023/09/18 11:54:51;;;;;;;3.47;1.77;;;22.50;99.90;;;;;;5022766;28;20022;-66
2023/09/18 11:57:18;;;;;;;4.22;1.60;;;22.50;99.90;;;;;;5039570;28;20045;-66
2023/09/18 11:59:46;;;;;;;6.20;2.08;;;22.50;99.90;;;;;;5039571;28;20068;-66
2023/09/18 12:02:20;;;;;;;3.08;1.65;;;22.50;99.90;;;;;;5039385;28;20046;-67
2023/09/18 12:04:46;;;;;;;6.25;1.80;;;22.60;99.90;;;;;;5022314;28;20035;-66
2023/09/18 12:07:12;;;;;;;2.17;1.60;;;22.60;99.90;;;;;;5039289;28;20032;-66
2023/09/18 12:09:39;;;;;;;3.33;1.85;;;22.60;99.90;;;;;;5039107;28;20100;-67
2023/09/18 12:12:08;;;;;;;4.43;2.20;;;22.60;99.90;;;;;;5039098;28;20029;-67
2023/09/18 12:14:34;;;;;;;2.03;1.65;;;22.70;99.90;;;;;;5021957;28;20021;-67
2023/09/18 12:17:02;;;;;;;5.85;2.13;;;22.70;99.90;;;;;;5021582;28;20113;-67
2023/09/18 12:19:28;;;;;;;3.83;2.03;;;22.70;99.90;;;;;;5039163;28;20045;-67
2023/09/18 12:21:54;;;;;;;3.25;2.13;;;22.80;99.90;;;;;;5039294;28;20048;-67
2023/09/18 12:24:24;;;;;;;2.47;1.75;;;22.90;99.90;;;;;;5021716;28;20025;-67
2023/09/18 12:26:51;;;;;;;1.88;1.70;;;22.90;99.90;;;;;;5039175;28;20032;-66
2023/09/18 12:29:16;;;;;;;3.47;1.95;;;22.90;99.90;;;;;;5038742;28;20022;-67
2023/09/18 12:31:45;;;;;;;6.65;2.65;;;22.90;99.90;;;;;;5039098;28;20033;-68
2023/09/18 12:34:23;;;;;;;4.25;2.15;;;23.00;99.90;;;;;;5038500;28;20032;-67
2023/09/18 12:36:50;;;;;;;2.83;2.10;;;23.10;99.90;;;;;;5021348;28;20022;-67
2023/09/18 12:39:16;;;;;;;4.47;1.75;;;23.20;99.90;;;;;;5038574;28;20083;-67
2023/09/18 12:41:46;;;;;;;4.72;2.40;;;23.20;99.90;;;;;;5021897;28;20031;-67
2023/09/18 12:44:14;;;;;;;5.30;1.90;;;23.20;99.90;;;;;;5038573;28;20192;-67
2023/09/18 12:46:43;;;;;;;4.45;2.10;;;23.30;99.90;;;;;;5037876;28;20028;-67